Terminal Aerodrome Forecast
Issued by NWS Sioux Falls, SD

Home | Current Version | Previous Version | Graphics & Text | Print | Product List | Glossary Off
Versions: 1 2 3 4 5 6 7 8 9 10 11 12 13 14 15 16 17 18 19 20 21 22 23 24 25 26 27 28 29 30 31 32 33 34 35

000
FTUS43 KFSD 030524 AAA
TAFSUX
TAF AMD
KSUX 030524Z 0305/0406 14010KT P6SM BKN150 WS010/21040KT
      TEMPO 0306/0308 6SM -TSRA SCT080CB
     FM031200 18012KT P6SM SCT250
     FM031400 19014G21KT P6SM FEW250
     FM032000 20009KT P6SM SCT050
     FM032300 34006KT P6SM BKN060
      TEMPO 0323/0402 6SM TSRA OVC040CB=

USA.gov is the U.S. government's official web portal to all federal, state and local government web resources and services.